This is the latest recevied weather packets stored in our database for station/object KD5FHA. If no packets are shown the sender has not sent any weather packets the latest 10 day(s).
| Time | Temp. | Humidity | Pressure | Rain* | Wind** | Luminosity | Snow |
|---|---|---|---|---|---|---|---|
| 1777507835 | 16.67° C | 81% | 1014.2 hPa | 0 mm | - | 9 W/m² | - |
| 1777507532 | 17.22° C | 81% | 1014 hPa | 0 mm | - | 11 W/m² | - |
| 1777507228 | 17.22° C | 80% | 1014.1 hPa | 0 mm | - | 14 W/m² | - |
| 1777506927 | 17.22° C | 80% | 1012.3 hPa | 0 mm | - | 91 W/m² | - |
| 1777506624 | 17.22° C | 80% | 1012.7 hPa | 0 mm | - | 32 W/m² | - |
| 1777506320 | 17.22° C | 80% | 1012.7 hPa | 0 mm | - | 51 W/m² | - |
| 1777506015 | 17.22° C | 80% | 1013.5 hPa | 0 mm | - | 34 W/m² | - |
| 1777505711 | 17.22° C | 79% | 1013.1 hPa | 0 mm | - | 39 W/m² | - |
| 1777505409 | 17.78° C | 80% | 1012.7 hPa | 0 mm | - | 81 W/m² | - |
| 1777505105 | 17.22° C | 80% | 1013.2 hPa | 0 mm | - | 83 W/m² | - |
| 1777504802 | 17.22° C | 80% | 1013.5 hPa | 0 mm | - | 68 W/m² | - |
| 1777504499 | 17.22° C | 80% | 1013.8 hPa | 0 mm | - | 60 W/m² | - |
| 1777504195 | 17.22° C | 79% | 1014 hPa | 0 mm | - | 52 W/m² | - |
| 1777503890 | 17.22° C | 80% | 1013.8 hPa | 0 mm | - | 64 W/m² | - |
| 1777503586 | 17.78° C | 81% | 1013.8 hPa | 0 mm | - | 83 W/m² | - |
| 1777503284 | 17.78° C | 81% | 1013.8 hPa | 0 mm | - | 61 W/m² | - |
| 1777502980 | 17.78° C | 81% | 1013.8 hPa | 0 mm | - | 69 W/m² | - |
| 1777502678 | 17.22° C | 80% | 1013.6 hPa | 0 mm | - | 76 W/m² | - |
| 1777502374 | 17.78° C | 80% | 1013.8 hPa | 0 mm | - | 82 W/m² | - |
| 1777502071 | 17.78° C | 80% | 1013.8 hPa | 0 mm | - | 87 W/m² | - |
| 1777501768 | 17.78° C | 80% | 1013.7 hPa | 0 mm | - | 72 W/m² | - |
| 1777501466 | 17.78° C | 80% | 1013.6 hPa | 0 mm | - | 85 W/m² | - |
| 1777501162 | 17.78° C | 79% | 1013.5 hPa | 0 mm | - | 108 W/m² | - |
| 1777500861 | 17.78° C | 79% | 1013.6 hPa | 0 mm | - | 100 W/m² | - |
| 1777500558 | 17.78° C | 79% | 1013.4 hPa | 0 mm | - | 176 W/m² | - |
* Rain latest hour (hover to see other rain measurements)
** Current wind speed in m/s (hover to see current wind gust speed)